Time;durP1;ratioP1;P1;durP2;ratioP2;P2;SDS_P1;SDS_P2;PMS_P1;PMS_P2;Temp;Humidity;BMP_temperature;BMP_pressure;BME280_temperature;BME280_humidity;BME280_pressure;Samples;Min_cycle;Max_cycle;Signal;HPM_P1;HPM_P2
2022/04/28 00:01:58;;;;;;;14.03;10.13;;;6.20;99.90;;;;;;5065004;28;20793;-60
2022/04/28 00:04:23;;;;;;;14.03;9.90;;;6.20;99.90;;;;;;5070532;28;20182;-60
2022/04/28 00:06:49;;;;;;;15.73;10.40;;;6.20;99.90;;;;;;5068209;28;20179;-60
2022/04/28 00:09:15;;;;;;;13.37;9.23;;;6.20;99.90;;;;;;5061785;28;20174;-60
2022/04/28 00:11:41;;;;;;;14.40;9.53;;;6.20;99.90;;;;;;5064669;28;20221;-60
2022/04/28 00:14:09;;;;;;;11.90;9.87;;;6.20;99.90;;;;;;5066742;28;20247;-60
2022/04/28 00:16:35;;;;;;;11.80;8.60;;;6.20;99.90;;;;;;5063341;28;20804;-59
2022/04/28 00:19:02;;;;;;;15.33;9.80;;;6.10;99.90;;;;;;5065850;28;20425;-60
2022/04/28 00:21:28;;;;;;;13.30;9.50;;;6.10;99.90;;;;;;5068261;28;20424;-60
2022/04/28 00:23:54;;;;;;;14.47;9.70;;;6.10;99.90;;;;;;5059613;28;20480;-59
2022/04/28 00:26:20;;;;;;;14.47;9.77;;;6.10;99.90;;;;;;5064771;28;20264;-60
2022/04/28 00:28:46;;;;;;;11.67;9.00;;;6.10;99.90;;;;;;5066134;28;20269;-60
2022/04/28 00:31:12;;;;;;;17.20;10.40;;;6.10;99.90;;;;;;5062820;28;20444;-60
2022/04/28 00:33:40;;;;;;;14.57;10.20;;;6.10;99.90;;;;;;5057522;28;20450;-64
2022/04/28 00:36:06;;;;;;;12.53;8.90;;;6.10;99.90;;;;;;5065524;28;20201;-64
2022/04/28 00:38:32;;;;;;;14.80;10.40;;;6.10;99.90;;;;;;5057639;28;20424;-61
2022/04/28 00:40:58;;;;;;;14.53;9.97;;;6.10;99.90;;;;;;5068369;28;20173;-60
2022/04/28 00:43:28;;;;;;;18.10;10.80;;;6.10;99.90;;;;;;5063117;28;20453;-60
2022/04/28 00:45:54;;;;;;;12.80;10.37;;;6.10;99.90;;;;;;5068244;28;20198;-60
2022/04/28 00:51:06;;;;;;;13.27;9.17;;;6.00;99.90;;;;;;5064533;28;20512;-60
2022/04/28 00:53:48;;;;;;;12.53;9.03;;;6.00;99.90;;;;;;5058559;28;20447;-60
2022/04/28 00:56:14;;;;;;;13.30;9.53;;;6.00;99.90;;;;;;5066176;28;20456;-59
2022/04/28 00:58:40;;;;;;;13.90;9.33;;;6.00;99.90;;;;;;5059507;28;20440;-59
2022/04/28 01:01:06;;;;;;;15.33;9.57;;;6.00;99.90;;;;;;5063597;28;20434;-59
2022/04/28 01:03:31;;;;;;;14.47;9.90;;;5.90;99.90;;;;;;5059649;28;20291;-60
2022/04/28 01:05:58;;;;;;;14.00;9.07;;;5.90;99.90;;;;;;5066135;28;20178;-60
2022/04/28 01:08:24;;;;;;;17.57;9.80;;;5.90;99.90;;;;;;5063023;28;20178;-59
2022/04/28 01:10:51;;;;;;;12.53;9.13;;;5.90;99.90;;;;;;5060240;28;20430;-60
2022/04/28 01:13:17;;;;;;;18.43;10.20;;;5.80;99.90;;;;;;5055719;28;20252;-60
2022/04/28 01:15:47;;;;;;;16.23;10.60;;;5.80;99.90;;;;;;5065227;28;20452;-59
2022/04/28 01:18:14;;;;;;;14.80;10.90;;;5.80;99.90;;;;;;5064749;28;20182;-60
2022/04/28 01:20:40;;;;;;;15.33;10.03;;;5.80;99.90;;;;;;5065547;28;20426;-59
2022/04/28 01:23:07;;;;;;;16.73;10.73;;;5.80;99.90;;;;;;5057981;28;20447;-59
2022/04/28 01:25:33;;;;;;;14.73;10.10;;;5.80;99.90;;;;;;5067392;28;21016;-60
2022/04/28 01:27:59;;;;;;;19.90;11.27;;;5.80;99.90;;;;;;5065008;28;20433;-60
2022/04/28 01:30:25;;;;;;;16.33;10.73;;;5.80;99.90;;;;;;5070232;28;20492;-59
2022/04/28 01:32:51;;;;;;;19.30;10.80;;;5.80;99.90;;;;;;5060254;28;20445;-59
2022/04/28 01:35:17;;;;;;;16.43;11.07;;;5.80;99.90;;;;;;5063534;28;20435;-60
2022/04/28 01:37:43;;;;;;;20.27;10.90;;;5.80;99.90;;;;;;5069513;28;20480;-60
2022/04/28 01:40:11;;;;;;;15.17;10.40;;;5.80;99.90;;;;;;5063579;28;20209;-60
2022/04/28 01:42:41;;;;;;;18.63;12.07;;;5.80;99.90;;;;;;5062256;28;20199;-61
2022/04/28 01:45:08;;;;;;;16.87;11.60;;;5.80;99.90;;;;;;5057614;28;20486;-60
2022/04/28 01:47:35;;;;;;;16.53;10.80;;;5.80;99.90;;;;;;5065258;28;20444;-60
2022/04/28 01:50:01;;;;;;;14.23;10.30;;;5.70;99.90;;;;;;5064213;28;20420;-60
2022/04/28 01:55:11;;;;;;;16.00;11.20;;;5.70;99.90;;;;;;5052702;28;20914;-60
2022/04/28 01:57:37;;;;;;;18.83;11.50;;;5.70;99.90;;;;;;5059423;28;20536;-60
2022/04/28 02:00:04;;;;;;;17.00;10.63;;;5.70;99.90;;;;;;5050284;28;20200;-60
2022/04/28 02:02:31;;;;;;;15.80;10.60;;;5.70;99.90;;;;;;5062612;22;20496;-59
2022/04/28 02:04:58;;;;;;;16.60;11.03;;;5.70;99.90;;;;;;5024141;28;20943;-59
2022/04/28 02:07:25;;;;;;;17.73;11.30;;;5.70;99.90;;;;;;5030514;28;20484;-59
2022/04/28 02:09:50;;;;;;;17.03;10.80;;;5.70;99.90;;;;;;5027429;28;20537;-59
2022/04/28 02:12:16;;;;;;;20.40;13.00;;;5.70;99.90;;;;;;5026706;28;20458;-60
2022/04/28 02:14:42;;;;;;;19.43;11.10;;;5.70;99.90;;;;;;5020513;28;20266;-59
2022/04/28 02:17:08;;;;;;;18.07;12.53;;;5.70;99.90;;;;;;5024588;28;20223;-60
2022/04/28 02:19:35;;;;;;;20.13;12.77;;;5.70;99.90;;;;;;5024457;28;20198;-60
2022/04/28 02:22:04;;;;;;;24.00;11.13;;;5.70;99.90;;;;;;5020671;28;20449;-58
2022/04/28 02:24:30;;;;;;;18.70;11.13;;;5.70;99.90;;;;;;5021031;28;20507;-59
2022/04/28 02:26:55;;;;;;;20.40;12.13;;;5.70;99.90;;;;;;5026387;28;20942;-60
2022/04/28 02:29:21;;;;;;;20.47;11.37;;;5.70;99.90;;;;;;5016161;28;20432;-59
2022/04/28 02:31:47;;;;;;;18.90;12.27;;;5.70;99.90;;;;;;5027006;28;20234;-60
2022/04/28 02:34:12;;;;;;;19.57;11.50;;;5.70;99.90;;;;;;5025174;28;20438;-59
2022/04/28 02:36:38;;;;;;;18.60;11.80;;;5.70;99.90;;;;;;5022417;28;20257;-59
2022/04/28 02:39:04;;;;;;;21.67;12.93;;;5.60;99.90;;;;;;5024053;28;20184;-61
2022/04/28 02:41:30;;;;;;;18.10;11.93;;;5.60;99.90;;;;;;5025924;28;20195;-59
2022/04/28 02:43:56;;;;;;;20.80;13.70;;;5.60;99.90;;;;;;5019877;28;20437;-59
2022/04/28 02:46:21;;;;;;;19.80;12.40;;;5.70;99.90;;;;;;5023763;28;20756;-59
2022/04/28 02:48:48;;;;;;;20.87;12.70;;;5.70;99.90;;;;;;5025342;28;20216;-59
2022/04/28 02:51:16;;;;;;;18.40;11.90;;;5.70;99.90;;;;;;5025534;28;20200;-60
2022/04/28 02:53:42;;;;;;;19.80;12.17;;;5.70;99.90;;;;;;5022712;28;20430;-60
2022/04/28 02:56:07;;;;;;;16.77;11.40;;;5.70;99.90;;;;;;5022189;28;20459;-59
2022/04/28 02:58:36;;;;;;;17.80;11.67;;;5.70;99.90;;;;;;5028181;28;20167;-60
2022/04/28 03:01:02;;;;;;;17.93;11.70;;;5.70;99.90;;;;;;5022076;28;20200;-61
2022/04/28 03:03:28;;;;;;;17.93;11.47;;;5.60;99.90;;;;;;5024622;28;20573;-59
2022/04/28 03:11:23;;;;;;;19.70;13.73;;;5.50;99.90;;;;;;5024926;28;20452;-59
2022/04/28 03:13:49;;;;;;;20.20;13.77;;;5.40;99.90;;;;;;5021510;28;20774;-58
2022/04/28 03:16:15;;;;;;;19.20;12.80;;;5.40;99.90;;;;;;5023966;28;20550;-59
2022/04/28 03:18:41;;;;;;;22.37;14.43;;;5.30;99.90;;;;;;5023674;28;20441;-59
2022/04/28 03:21:06;;;;;;;20.17;12.30;;;5.20;99.90;;;;;;5024810;28;20657;-58
2022/04/28 03:23:32;;;;;;;19.90;11.50;;;5.20;99.90;;;;;;5024002;28;20672;-59
2022/04/28 03:25:58;;;;;;;16.40;11.63;;;5.10;99.90;;;;;;5030320;28;20190;-59
2022/04/28 03:28:23;;;;;;;17.23;11.03;;;5.10;99.90;;;;;;5032966;28;20195;-60
2022/04/28 03:30:50;;;;;;;14.37;10.50;;;5.00;99.90;;;;;;5023410;28;20304;-60
2022/04/28 03:33:16;;;;;;;19.70;11.40;;;5.00;99.90;;;;;;5028602;28;20318;-59
2022/04/28 03:35:42;;;;;;;22.17;13.27;;;4.90;99.90;;;;;;5025960;28;20533;-59
2022/04/28 03:38:12;;;;;;;19.17;10.87;;;4.90;99.90;;;;;;5026018;28;20426;-59
2022/04/28 03:40:42;;;;;;;17.97;11.30;;;4.90;99.90;;;;;;5027696;28;20418;-59
2022/04/28 03:43:09;;;;;;;17.77;12.20;;;4.80;99.90;;;;;;5018757;28;20921;-59
2022/04/28 03:45:35;;;;;;;25.07;12.57;;;4.80;99.90;;;;;;5027205;28;20505;-60
2022/04/28 03:48:01;;;;;;;23.07;12.30;;;4.80;99.90;;;;;;5024787;28;20445;-60
2022/04/28 03:50:29;;;;;;;23.40;13.10;;;4.80;99.90;;;;;;5027596;28;20426;-58
2022/04/28 03:52:55;;;;;;;19.40;12.70;;;4.80;99.90;;;;;;5029621;28;20453;-59
2022/04/28 03:55:21;;;;;;;20.70;12.43;;;4.80;99.90;;;;;;5016651;28;20518;-61
2022/04/28 03:57:47;;;;;;;24.33;13.90;;;4.80;99.90;;;;;;5019240;28;20494;-61
2022/04/28 04:00:13;;;;;;;20.33;12.77;;;4.80;99.90;;;;;;5022863;28;20933;-61
2022/04/28 04:02:39;;;;;;;22.33;14.00;;;4.80;99.90;;;;;;5019408;28;20280;-60
2022/04/28 04:05:06;;;;;;;23.30;13.90;;;4.80;99.90;;;;;;5019772;28;20438;-63
2022/04/28 04:07:33;;;;;;;24.30;13.33;;;4.80;99.90;;;;;;5021150;28;20184;-59
2022/04/28 04:09:59;;;;;;;22.20;13.00;;;4.80;99.90;;;;;;5026872;28;20502;-61
2022/04/28 04:12:25;;;;;;;19.73;12.30;;;4.80;99.90;;;;;;5030366;28;20450;-60
2022/04/28 04:14:54;;;;;;;20.23;13.00;;;4.80;99.90;;;;;;5034292;28;20456;-61
2022/04/28 04:17:21;;;;;;;27.23;13.13;;;4.80;99.90;;;;;;5031766;28;20470;-61
2022/04/28 04:19:46;;;;;;;18.23;12.07;;;4.80;99.90;;;;;;5022362;28;20454;-59
2022/04/28 04:22:12;;;;;;;21.47;13.13;;;4.70;99.90;;;;;;5024490;28;20970;-61
2022/04/28 04:24:38;;;;;;;21.97;12.00;;;4.70;99.90;;;;;;5020328;28;20625;-59
2022/04/28 04:27:03;;;;;;;27.10;13.30;;;4.70;99.90;;;;;;5023643;28;20199;-60
2022/04/28 04:29:29;;;;;;;22.00;11.70;;;4.70;99.90;;;;;;5024087;28;20627;-60
2022/04/28 04:32:37;;;;;;;19.70;11.90;;;4.70;99.90;;;;;;5018068;28;20200;-60
2022/04/28 04:34:50;;;;;;;19.83;12.03;;;4.70;99.90;;;;;;5015901;28;20275;-61
2022/04/28 04:37:15;;;;;;;20.13;12.77;;;4.70;99.90;;;;;;5031333;28;20457;-59
2022/04/28 04:39:41;;;;;;;24.23;14.10;;;4.70;99.90;;;;;;5026557;28;20556;-60
2022/04/28 04:42:07;;;;;;;27.03;14.27;;;4.70;99.90;;;;;;5030504;28;20224;-60
2022/04/28 04:44:34;;;;;;;22.60;12.97;;;4.70;99.90;;;;;;5033916;28;20187;-60
2022/04/28 04:47:00;;;;;;;25.73;13.77;;;4.70;99.90;;;;;;5033880;28;20618;-61
2022/04/28 04:49:25;;;;;;;26.67;14.60;;;4.70;99.90;;;;;;5031181;28;20430;-61
2022/04/28 04:51:51;;;;;;;23.30;14.30;;;4.80;99.90;;;;;;5022352;28;20466;-60
2022/04/28 04:54:17;;;;;;;26.03;14.07;;;4.80;99.90;;;;;;5024015;28;20241;-60
2022/04/28 04:56:43;;;;;;;27.40;15.60;;;4.80;99.90;;;;;;5019980;28;20215;-61
2022/04/28 04:59:08;;;;;;;28.23;14.33;;;4.90;99.90;;;;;;5027832;28;20450;-60
2022/04/28 05:01:35;;;;;;;26.70;13.80;;;4.90;99.90;;;;;;5022536;28;20699;-58
2022/04/28 05:04:00;;;;;;;20.90;12.50;;;5.00;99.90;;;;;;5020797;28;20331;-59
2022/04/28 05:06:26;;;;;;;29.80;13.80;;;5.10;99.90;;;;;;5018252;28;20525;-60
2022/04/28 05:08:52;;;;;;;22.40;14.23;;;5.10;99.90;;;;;;5028422;28;20630;-60
2022/04/28 05:11:17;;;;;;;24.20;13.03;;;5.10;99.90;;;;;;5028608;28;20204;-59
2022/04/28 05:13:46;;;;;;;22.00;14.67;;;5.20;99.90;;;;;;5031548;28;20220;-59
2022/04/28 05:16:14;;;;;;;24.67;13.17;;;5.30;99.90;;;;;;5030702;28;20269;-59
2022/04/28 05:18:40;;;;;;;26.03;12.50;;;5.40;99.90;;;;;;5027296;28;20453;-57
2022/04/28 05:21:06;;;;;;;19.27;13.00;;;5.50;99.90;;;;;;5023192;28;20458;-60
2022/04/28 05:23:31;;;;;;;23.67;14.17;;;5.60;99.90;;;;;;5024736;28;20215;-59
2022/04/28 05:25:57;;;;;;;20.73;13.07;;;5.60;99.90;;;;;;5026874;28;20180;-60
2022/04/28 05:28:29;;;;;;;26.17;14.27;;;5.70;99.90;;;;;;5028243;28;20888;-61
2022/04/28 05:30:57;;;;;;;31.93;14.10;;;5.80;99.90;;;;;;5015339;28;20527;-60
2022/04/28 05:33:23;;;;;;;25.90;15.10;;;5.90;99.90;;;;;;5027626;28;20438;-59
2022/04/28 05:35:49;;;;;;;27.33;14.17;;;6.00;99.90;;;;;;5030903;28;20526;-60
2022/04/28 05:38:15;;;;;;;26.93;14.63;;;6.10;99.90;;;;;;5027752;28;20347;-59
2022/04/28 05:40:42;;;;;;;25.27;15.30;;;6.30;99.90;;;;;;5023406;28;20441;-60
2022/04/28 05:45:54;;;;;;;27.97;15.20;;;6.50;99.90;;;;;;5020470;28;21053;-62
2022/04/28 05:48:20;;;;;;;33.17;16.67;;;6.70;99.90;;;;;;5023411;28;20525;-60
2022/04/28 05:50:47;;;;;;;29.40;15.50;;;6.90;99.90;;;;;;5028225;28;20215;-60
2022/04/28 05:53:13;;;;;;;31.60;16.93;;;7.00;99.90;;;;;;5026640;28;20422;-58
2022/04/28 05:55:39;;;;;;;29.83;17.47;;;7.10;99.90;;;;;;5019312;28;20479;-63
2022/04/28 05:58:05;;;;;;;30.73;16.10;;;7.20;99.90;;;;;;5024475;28;20645;-60
2022/04/28 06:00:32;;;;;;;26.63;14.90;;;7.40;99.90;;;;;;5024479;28;20829;-60
2022/04/28 06:02:59;;;;;;;26.93;15.03;;;7.50;99.90;;;;;;5021728;28;20485;-61
2022/04/28 06:05:24;;;;;;;27.30;16.63;;;7.60;99.90;;;;;;5025496;28;20939;-60
2022/04/28 06:07:51;;;;;;;29.73;15.13;;;7.80;99.90;;;;;;5026462;28;20434;-61
2022/04/28 06:10:16;;;;;;;26.57;15.50;;;7.90;99.90;;;;;;5043351;28;20593;-61
2022/04/28 06:12:42;;;;;;;24.23;13.67;;;8.00;99.90;;;;;;5023822;28;20550;-59
2022/04/28 06:15:11;;;;;;;28.20;14.20;;;8.10;99.90;;;;;;5020044;28;20597;-61
2022/04/28 06:17:36;;;;;;;25.50;15.30;;;8.20;99.90;;;;;;5023405;28;20200;-62
2022/04/28 06:20:03;;;;;;;25.97;14.90;;;8.30;99.90;;;;;;5020184;28;20595;-60
2022/04/28 06:22:29;;;;;;;23.90;14.30;;;8.50;99.90;;;;;;5021171;28;20236;-60
2022/04/28 06:24:56;;;;;;;25.03;14.17;;;8.60;99.90;;;;;;5024007;28;20438;-60
2022/04/28 06:27:22;;;;;;;24.27;14.30;;;8.70;99.90;;;;;;5022703;28;20442;-61
2022/04/28 06:29:49;;;;;;;22.17;13.47;;;8.80;99.90;;;;;;5022863;28;20478;-62
2022/04/28 06:32:18;;;;;;;25.57;13.97;;;8.90;99.90;;;;;;5020114;28;20465;-61
2022/04/28 06:34:44;;;;;;;20.97;12.83;;;9.00;99.90;;;;;;5026538;28;20947;-62
2022/04/28 06:37:10;;;;;;;22.00;13.73;;;9.10;99.90;;;;;;5021271;28;20493;-62
2022/04/28 06:39:36;;;;;;;20.33;12.53;;;9.20;99.90;;;;;;5020702;28;20940;-61
2022/04/28 06:42:03;;;;;;;21.57;11.27;;;9.30;99.00;;;;;;5022243;28;20230;-61
2022/04/28 06:44:28;;;;;;;17.70;11.77;;;9.40;97.70;;;;;;5020769;28;20234;-60
2022/04/28 06:46:54;;;;;;;17.57;11.60;;;9.40;96.90;;;;;;5014541;28;20427;-62
2022/04/28 06:49:20;;;;;;;17.43;11.27;;;9.60;96.60;;;;;;5024438;28;20766;-61
2022/04/28 06:51:46;;;;;;;22.20;11.43;;;9.70;95.70;;;;;;5025375;28;20286;-61
2022/04/28 06:54:12;;;;;;;14.43;10.07;;;9.80;93.00;;;;;;5021492;28;20184;-60
2022/04/28 06:56:38;;;;;;;21.73;11.47;;;9.80;90.70;;;;;;5015844;28;20454;-61
2022/04/28 06:59:04;;;;;;;14.83;10.23;;;9.90;90.80;;;;;;5025545;28;20198;-61
2022/04/28 07:01:30;;;;;;;16.83;9.97;;;10.00;88.30;;;;;;5022425;28;20211;-60
2022/04/28 07:03:56;;;;;;;14.67;9.50;;;10.10;84.00;;;;;;5011055;28;20442;-60
2022/04/28 07:06:22;;;;;;;15.00;9.20;;;10.20;82.90;;;;;;5021482;28;20438;-62
2022/04/28 07:08:47;;;;;;;14.40;9.67;;;10.30;79.50;;;;;;5017142;28;20180;-61
2022/04/28 07:11:13;;;;;;;12.57;8.90;;;10.40;77.50;;;;;;5013808;28;20203;-60
2022/04/28 07:13:39;;;;;;;14.00;9.70;;;10.40;75.30;;;;;;5023470;28;20176;-60
2022/04/28 07:16:05;;;;;;;12.57;8.50;;;10.50;74.70;;;;;;5025369;28;20230;-60
2022/04/28 07:18:31;;;;;;;10.63;8.10;;;10.60;72.90;;;;;;5021077;28;20670;-60
2022/04/28 07:21:00;;;;;;;11.47;8.67;;;10.70;72.40;;;;;;5026259;28;20597;-60
2022/04/28 07:23:26;;;;;;;11.20;8.30;;;10.80;70.80;;;;;;5022572;28;20176;-60
2022/04/28 07:25:51;;;;;;;10.27;8.30;;;10.90;69.60;;;;;;5026488;28;20941;-61
2022/04/28 07:28:17;;;;;;;11.63;7.43;;;11.00;66.60;;;;;;5018254;28;20185;-61
2022/04/28 07:30:43;;;;;;;10.50;7.73;;;11.10;65.10;;;;;;5029174;28;20211;-62
2022/04/28 07:33:08;;;;;;;11.87;8.00;;;11.10;63.70;;;;;;5030260;28;20252;-62
2022/04/28 07:35:34;;;;;;;11.67;7.20;;;11.20;63.20;;;;;;5025214;28;20655;-60
2022/04/28 07:38:00;;;;;;;11.87;7.30;;;11.30;62.90;;;;;;5018246;28;20230;-61
2022/04/28 07:40:26;;;;;;;10.80;7.47;;;11.40;62.30;;;;;;5019014;28;20528;-61
2022/04/28 07:42:52;;;;;;;9.20;6.87;;;11.50;61.60;;;;;;5020533;28;20549;-59
2022/04/28 07:45:19;;;;;;;9.37;7.07;;;11.60;61.00;;;;;;5026936;28;20287;-59
2022/04/28 07:47:44;;;;;;;11.73;7.20;;;11.70;60.40;;;;;;5030074;28;20450;-59
2022/04/28 07:50:11;;;;;;;8.60;6.57;;;11.70;59.60;;;;;;5025077;28;20442;-60
2022/04/28 07:52:38;;;;;;;9.13;6.00;;;11.80;59.70;;;;;;5022147;28;20207;-59
2022/04/28 07:55:05;;;;;;;9.53;6.70;;;11.90;59.30;;;;;;5022927;28;20449;-60
2022/04/28 07:57:31;;;;;;;14.90;6.20;;;12.00;59.10;;;;;;5017011;28;20471;-60
2022/04/28 07:59:57;;;;;;;7.40;5.70;;;12.10;58.40;;;;;;5019844;28;20434;-60
2022/04/28 08:02:23;;;;;;;9.10;6.37;;;12.20;57.80;;;;;;5013128;28;21076;-59
2022/04/28 08:04:49;;;;;;;7.27;5.97;;;12.30;57.30;;;;;;5021952;28;20172;-60
2022/04/28 08:07:15;;;;;;;8.47;6.07;;;12.50;56.50;;;;;;5024801;28;20279;-59
2022/04/28 08:09:41;;;;;;;13.50;6.30;;;12.50;55.90;;;;;;5019104;28;20180;-60
2022/04/28 08:12:07;;;;;;;9.50;6.90;;;12.60;54.50;;;;;;5018664;28;20458;-59
2022/04/28 08:14:33;;;;;;;9.80;6.43;;;12.60;54.40;;;;;;5016541;28;20246;-60
2022/04/28 08:16:59;;;;;;;8.83;6.30;;;12.70;55.00;;;;;;5005271;28;20451;-60
2022/04/28 08:19:25;;;;;;;9.27;6.70;;;12.80;53.20;;;;;;5013407;28;21021;-60
2022/04/28 08:21:52;;;;;;;7.13;5.33;;;12.80;52.60;;;;;;5019041;28;20745;-59
2022/04/28 08:24:18;;;;;;;6.73;5.87;;;12.80;52.10;;;;;;5021622;28;20215;-59
2022/04/28 08:26:43;;;;;;;6.43;5.43;;;12.90;51.30;;;;;;5018201;28;21522;-60
2022/04/28 08:29:09;;;;;;;6.90;5.97;;;12.90;51.00;;;;;;5025256;28;20176;-59
2022/04/28 08:31:43;;;;;;;6.87;5.20;;;13.00;50.70;;;;;;5025504;28;20195;-59
2022/04/28 08:34:09;;;;;;;8.13;6.10;;;13.00;50.20;;;;;;5011628;28;20191;-59
2022/04/28 08:36:35;;;;;;;8.20;5.80;;;13.10;50.00;;;;;;5021826;28;20462;-59
2022/04/28 08:39:01;;;;;;;7.57;5.80;;;13.10;49.20;;;;;;5020081;28;20434;-60
2022/04/28 08:41:41;;;;;;;7.07;5.70;;;13.10;48.70;;;;;;5022666;28;20721;-59
2022/04/28 08:44:11;;;;;;;5.67;5.00;;;13.20;49.20;;;;;;5022554;28;20628;-59
2022/04/28 08:46:52;;;;;;;8.77;5.80;;;13.30;49.20;;;;;;5024029;28;20417;-59
2022/04/28 08:49:19;;;;;;;8.00;5.63;;;13.30;48.90;;;;;;5024212;28;20971;-59
2022/04/28 08:51:44;;;;;;;7.60;5.70;;;13.40;48.50;;;;;;5018780;28;20531;-59
2022/04/28 08:54:12;;;;;;;8.40;5.60;;;13.40;48.40;;;;;;5017843;28;20442;-59
2022/04/28 08:56:39;;;;;;;9.63;6.10;;;13.60;48.30;;;;;;5020507;28;20219;-59
2022/04/28 08:59:06;;;;;;;6.00;4.63;;;13.60;48.00;;;;;;5023361;28;20422;-59
2022/04/28 09:01:32;;;;;;;7.30;5.30;;;13.70;47.00;;;;;;5021036;28;20481;-59
2022/04/28 09:04:05;;;;;;;6.47;5.40;;;13.80;47.90;;;;;;5023499;28;20415;-61
2022/04/28 09:06:35;;;;;;;6.00;4.70;;;13.90;46.90;;;;;;5021634;28;21169;-61
2022/04/28 09:09:07;;;;;;;7.80;5.00;;;13.90;45.10;;;;;;5021849;28;20430;-60
2022/04/28 09:11:37;;;;;;;7.30;5.07;;;13.90;44.70;;;;;;5016488;28;20474;-60
2022/04/28 09:14:09;;;;;;;5.70;5.03;;;14.00;44.40;;;;;;5015056;28;20434;-60
2022/04/28 09:16:46;;;;;;;7.13;4.93;;;14.00;44.30;;;;;;5017129;28;20459;-57
2022/04/28 09:19:24;;;;;;;6.93;5.53;;;14.10;44.70;;;;;;5013128;28;20505;-59
2022/04/28 09:21:55;;;;;;;9.97;6.60;;;14.20;45.20;;;;;;5021989;28;20520;-60
2022/04/28 09:24:23;;;;;;;6.30;5.00;;;14.30;45.40;;;;;;5094919;22;20491;-62
2022/04/28 09:26:50;;;;;;;5.73;5.13;;;14.40;46.30;;;;;;5082956;28;20435;-62
2022/04/28 09:29:17;;;;;;;6.00;5.03;;;14.50;46.40;;;;;;5084988;28;20436;-62
2022/04/28 09:31:44;;;;;;;6.10;5.30;;;14.60;45.10;;;;;;5083281;28;20424;-62
2022/04/28 09:34:13;;;;;;;7.90;5.13;;;14.70;45.10;;;;;;5084970;28;20436;-62
2022/04/28 09:36:40;;;;;;;5.90;4.80;;;14.80;44.50;;;;;;5082092;28;20822;-63
2022/04/28 09:39:07;;;;;;;5.77;3.70;;;14.80;43.50;;;;;;5085322;28;20442;-63
2022/04/28 09:44:22;;;;;;;8.43;4.90;;;14.90;43.60;;;;;;5084096;28;20505;-63
2022/04/28 09:46:49;;;;;;;7.50;4.53;;;15.00;43.50;;;;;;5085078;28;20765;-62
2022/04/28 09:49:17;;;;;;;9.60;4.57;;;15.00;43.30;;;;;;5084371;28;20435;-62
2022/04/28 09:51:44;;;;;;;9.13;4.80;;;15.10;44.00;;;;;;5084680;28;20435;-62
2022/04/28 09:54:12;;;;;;;5.20;4.47;;;15.20;43.70;;;;;;5085238;28;20458;-63
2022/04/28 09:56:40;;;;;;;5.53;3.93;;;15.20;42.60;;;;;;5085815;28;20462;-63
2022/04/28 09:59:09;;;;;;;5.40;4.90;;;15.30;42.80;;;;;;5083227;28;20539;-62
2022/04/28 10:01:37;;;;;;;6.10;4.80;;;15.40;43.20;;;;;;5084426;28;20431;-63
2022/04/28 10:04:03;;;;;;;7.47;4.80;;;15.50;42.50;;;;;;5085503;28;20444;-62
2022/04/28 10:06:34;;;;;;;8.30;4.73;;;15.50;42.40;;;;;;5075773;28;20436;-62
2022/04/28 10:09:05;;;;;;;7.27;4.80;;;15.60;43.20;;;;;;5082498;28;20439;-63
2022/04/28 10:11:31;;;;;;;5.50;4.73;;;15.70;42.90;;;;;;5080861;28;20963;-62
2022/04/28 10:13:59;;;;;;;7.43;4.70;;;15.80;43.10;;;;;;5080005;28;20439;-63
2022/04/28 10:16:25;;;;;;;6.90;4.70;;;15.90;42.80;;;;;;5082859;28;20451;-62
2022/04/28 10:18:58;;;;;;;6.23;4.13;;;16.00;42.80;;;;;;5081592;28;20427;-62
2022/04/28 10:21:29;;;;;;;6.20;4.83;;;16.10;42.80;;;;;;5080325;28;20439;-61
2022/04/28 10:32:56;;;;;;;6.33;4.83;;;16.40;42.00;;;;;;5076329;28;20482;-61
2022/04/28 10:35:56;;;;;;;7.90;5.37;;;16.50;43.00;;;;;;5078977;28;20427;-62
2022/04/28 10:38:24;;;;;;;7.90;5.20;;;16.60;42.00;;;;;;5065624;28;20448;-61
2022/04/28 10:40:59;;;;;;;5.80;4.20;;;16.70;41.50;;;;;;5078424;28;20435;-61
2022/04/28 10:43:33;;;;;;;6.00;4.60;;;16.70;41.50;;;;;;5083947;28;20455;-62
2022/04/28 10:46:28;;;;;;;10.33;5.23;;;16.80;41.80;;;;;;5083009;28;20419;-60
2022/04/28 10:48:59;;;;;;;6.60;4.10;;;16.90;42.00;;;;;;5104158;28;20455;-59
2022/04/28 10:51:27;;;;;;;7.17;4.63;;;17.00;41.50;;;;;;5090770;28;20427;-64
2022/04/28 10:54:09;;;;;;;5.53;4.40;;;17.10;41.20;;;;;;5074095;28;20454;-60
2022/04/28 10:56:54;;;;;;;5.77;4.37;;;17.20;42.00;;;;;;5076936;28;20513;-59
2022/04/28 10:59:34;;;;;;;8.73;4.70;;;17.30;42.50;;;;;;5076709;28;20432;-58
2022/04/28 11:02:15;;;;;;;8.30;5.70;;;17.40;41.70;;;;;;5076722;28;20454;-60
2022/04/28 11:04:43;;;;;;;9.80;5.60;;;17.50;42.50;;;;;;5075237;28;20447;-58
2022/04/28 11:07:19;;;;;;;7.50;5.83;;;17.50;42.00;;;;;;5077989;28;20478;-59
2022/04/28 11:09:51;;;;;;;12.83;5.53;;;17.60;42.20;;;;;;5077541;28;21231;-58
2022/04/28 11:12:19;;;;;;;6.63;4.90;;;17.70;43.00;;;;;;5077156;28;20940;-60
2022/04/28 11:15:09;;;;;;;6.00;5.20;;;17.70;42.60;;;;;;5076001;28;21048;-56
2022/04/28 11:17:37;;;;;;;6.80;4.67;;;17.80;41.80;;;;;;5077903;28;20463;-56
2022/04/28 11:20:07;;;;;;;8.00;6.00;;;17.90;42.10;;;;;;5080092;28;20427;-59
2022/04/28 11:22:33;;;;;;;9.57;5.40;;;17.90;43.10;;;;;;5074088;28;20427;-58
2022/04/28 11:24:59;;;;;;;5.40;4.60;;;18.00;42.00;;;;;;5077250;28;20440;-60
2022/04/28 11:27:27;;;;;;;6.33;4.43;;;18.10;41.20;;;;;;5073106;28;20470;-57
2022/04/28 11:29:58;;;;;;;5.40;4.63;;;18.20;42.40;;;;;;5077201;28;20213;-58
2022/04/28 11:32:24;;;;;;;7.10;5.20;;;18.40;42.20;;;;;;5078407;28;20978;-60
2022/04/28 11:34:52;;;;;;;6.80;5.00;;;18.50;42.50;;;;;;5074026;28;20460;-61
2022/04/28 11:37:25;;;;;;;7.00;5.23;;;18.60;42.70;;;;;;5079649;28;20556;-62
2022/04/28 11:39:53;;;;;;;6.63;4.90;;;18.60;41.50;;;;;;5082674;28;20416;-62
2022/04/28 11:42:20;;;;;;;4.77;4.27;;;18.70;41.50;;;;;;5077309;28;20476;-62
2022/04/28 11:44:46;;;;;;;5.60;4.67;;;18.80;41.90;;;;;;5077976;28;20467;-60
2022/04/28 11:47:18;;;;;;;6.80;4.53;;;19.00;41.50;;;;;;5078786;28;20460;-61
2022/04/28 11:49:43;;;;;;;10.37;5.30;;;19.10;40.30;;;;;;5077155;28;20442;-61
2022/04/28 11:52:19;;;;;;;5.83;5.10;;;19.20;41.20;;;;;;5078636;28;20881;-60
2022/04/28 11:54:50;;;;;;;7.17;5.67;;;19.30;39.60;;;;;;5080371;28;20193;-60
2022/04/28 11:57:18;;;;;;;5.40;4.83;;;19.40;40.60;;;;;;5084820;28;20506;-60
2022/04/28 11:59:44;;;;;;;8.37;4.73;;;19.50;39.30;;;;;;5070592;28;20419;-59
2022/04/28 12:02:23;;;;;;;7.13;4.67;;;19.60;39.00;;;;;;5074689;28;21063;-61
2022/04/28 12:04:49;;;;;;;5.27;4.40;;;19.70;39.00;;;;;;5080520;28;20443;-60
2022/04/28 12:07:22;;;;;;;6.60;3.90;;;19.70;39.00;;;;;;5083801;28;20438;-61
2022/04/28 12:15:20;;;;;;;7.33;4.80;;;20.00;38.50;;;;;;5069942;28;20439;-61
2022/04/28 12:21:00;;;;;;;4.40;3.83;;;20.10;38.40;;;;;;5079032;28;20562;-60
2022/04/28 12:23:40;;;;;;;4.93;4.30;;;20.20;37.80;;;;;;5076730;28;20463;-61
2022/04/28 12:26:08;;;;;;;5.30;4.17;;;20.40;38.30;;;;;;5079877;28;20436;-60
2022/04/28 12:28:40;;;;;;;4.80;4.23;;;20.50;36.30;;;;;;5071226;28;21168;-61
2022/04/28 12:31:11;;;;;;;7.17;3.97;;;20.50;36.50;;;;;;5082429;28;20526;-60
2022/04/28 12:33:38;;;;;;;6.13;4.27;;;20.50;36.30;;;;;;5078498;28;21033;-61
2022/04/28 12:36:06;;;;;;;7.30;3.70;;;20.60;36.80;;;;;;5078780;28;20459;-60
2022/04/28 12:38:34;;;;;;;4.93;3.80;;;20.70;36.70;;;;;;5078081;28;20435;-60
2022/04/28 12:41:22;;;;;;;6.10;3.90;;;20.70;34.90;;;;;;5081744;28;20489;-60
2022/04/28 12:43:50;;;;;;;4.63;3.90;;;20.80;35.30;;;;;;5081286;28;20477;-60
2022/04/28 12:46:20;;;;;;;4.40;3.77;;;20.90;35.00;;;;;;5080082;28;20435;-60
2022/04/28 12:48:56;;;;;;;5.13;3.93;;;21.10;36.00;;;;;;5081216;28;20847;-60
2022/04/28 12:51:28;;;;;;;5.03;4.53;;;21.20;36.10;;;;;;5078698;28;20515;-60
2022/04/28 12:54:09;;;;;;;3.40;3.07;;;21.30;36.70;;;;;;5078416;28;20494;-60
2022/04/28 12:56:34;;;;;;;5.27;3.97;;;21.30;36.10;;;;;;5076111;28;20478;-59
2022/04/28 12:59:06;;;;;;;4.20;3.43;;;21.40;36.50;;;;;;5081198;28;20436;-60
2022/04/28 13:01:32;;;;;;;8.00;3.70;;;21.60;36.00;;;;;;5076304;28;21253;-61
2022/04/28 13:03:59;;;;;;;4.00;3.70;;;21.70;34.30;;;;;;5077697;28;20453;-61
2022/04/28 13:06:26;;;;;;;5.83;4.00;;;21.80;33.80;;;;;;5079472;28;20504;-60
2022/04/28 13:08:52;;;;;;;7.33;3.20;;;21.80;33.10;;;;;;5080472;28;20439;-61
2022/04/28 13:11:24;;;;;;;5.03;3.87;;;21.90;33.00;;;;;;5078494;28;20419;-60
2022/04/28 13:13:50;;;;;;;5.60;3.53;;;22.10;33.60;;;;;;5081301;28;20983;-61
2022/04/28 13:16:17;;;;;;;4.50;3.67;;;22.20;33.50;;;;;;5075912;28;20483;-61
2022/04/28 13:18:43;;;;;;;4.30;3.90;;;22.30;34.00;;;;;;5081697;28;20492;-60